Terminal Aerodrome Forecast
Issued by NWS Bismarck, ND

Home | Current Version | Previous Version | Graphics & Text | Print | Product List | Glossary On
Versions: 1 2 3 4 5 6 7 8 9 10 11 12 13 14 15 16 17
000
FTUS43 KBIS 170225 AAA
TAFBIS
TAF AMD
KBIS 170225Z 1702/1724 29005KT P6SM BKN015 OVC060
     FM170600 29005KT P6SM BKN035
     FM170900 29004KT P6SM SCT110
     FM171600 23007KT P6SM FEW200=

USA.gov is the U.S. government's official web portal to all federal, state and local government web resources and services.